Mahlon Sweet Field Eugene US
ICAO: KEUG
IATA: EUG
Category: Medium
Scheduled Services: Yes

Elevation: 374 ft
TransAlt. 18000 ft.

Airport Communications:
CASCADE APP/DEP:119.6
ATIS:125.225
EUGENE CLNC DEL:121.7
CTAF:118.9
GND:121.7
MC MINNVILLE RDO:122.3
EUGENE TWR:118.9
UNICOM:122.95

KEUG Zoom In..

If you have problems with the map follow the link
https://www.worldairports.se/pages/airport.php?
ICAO=KEUG

Runways:

(A) RW 16L length 6000 ft width 150 ft
ILS 111.75 / hdg 163

(B) RW 16R length 8009 ft width 150 ft
ILS 110.10 / hdg 163

(C) RW 34L length 8009 ft width 150 ft
---- / hdg 343

(D) RW 34R length 6000 ft width 150 ft
---- / hdg 343

Location; KEUG
Day. 28 / Time. 12.54 Zulu
* Altimeter: 29.98
* Temperature: 10° c. 50°f.
* Wind from: 190° Speed 17 kn with Gusts up to 25 kn.
Dewpoint: 07° c.
Visibility: 8 Statute Miles.
Clouds: Broken 4100 ft.
Clouds: Broken 7000 ft.
Clouds: Broken 9000 ft.
Conditions: Rain.

KEUG 281254Z AUTO 19017G25KT 8SM RA BKN041 BKN070 BKN090 10/07 A2998 RMK AO2 RAB47 SLP154 P0001 T01000067


Wind From 190°
Speed 17 kn.

 
 
jpsmedia worldairports.se 2020   terms of use